KAQP

Appleton Municipal Airport

Appleton, Minnesota, USA
METAR KAQP 251851Z AUTO 33007KT 10SM -RA SCT020 SCT038 11/08 A3003 RMK AO2
Observed Flight Rules
Sep-25 @ 18:51 UTC (14 minutes ago) Visual Flight Rules
Wind Visibility Clouds Conditions
330° at 7 knots 10 miles
  • Scattered at 2,000' AGL
  • Scattered at 3,800' AGL
  • Light Rain
Temperatures Readings
Current 11°C / 52°F
Dewpoint 8°C / 46°F
Humidity 82%
Altimeter 30.03" Hg
Pressure 1017 hPa
Elevation 311
METAR KAQP 251851Z AUTO 33007KT 10SM -RA SCT020 SCT038 11/08 A3003 RMK AO2
Observed Flight Rules
Sep-25 @ 18:51 UTC
(14 minutes ago)
VFR
Wind Visibility
330° at 7 knots 10 miles
Clouds
  • Scattered at 2,000' AGL
  • Scattered at 3,800' AGL
Conditions
  • Light Rain
Temperature Dewpoint
11°C / 52°F 8°C / 46°F
Humidity Altimeter Pressure
82% 30.03" Hg 1017 hPa